createdAt,value
2018-11-06T00:12:29.366Z,94331.98
2018-11-06T00:27:33.495Z,94324.69
2018-11-06T00:42:37.578Z,94316.99
2018-11-06T00:57:42.887Z,94315.63
2018-11-06T01:12:47.040Z,94307.87
2018-11-06T01:27:51.238Z,94302.34
2018-11-06T01:42:55.669Z,94301.36
2018-11-06T01:57:59.860Z,94287.60
2018-11-06T02:13:04.019Z,94289.66
2018-11-06T02:28:08.129Z,94292.70
2018-11-06T02:43:12.208Z,94291.52
2018-11-06T02:58:16.981Z,94285.69
2018-11-06T03:13:21.110Z,94287.38
2018-11-06T03:28:25.096Z,94279.52
2018-11-06T03:43:29.111Z,94281.17
2018-11-06T03:58:33.249Z,94298.92
2018-11-06T04:13:37.417Z,94307.59
2018-11-06T04:28:41.501Z,94311.32
2018-11-06T04:43:45.491Z,94304.66
2018-11-06T04:58:49.588Z,94328.16
2018-11-06T05:13:53.649Z,94324.09
2018-11-06T05:28:57.826Z,94322.91
2018-11-06T05:44:02.104Z,94332.41
2018-11-06T05:59:06.189Z,94331.19
2018-11-06T06:14:10.289Z,94332.07
2018-11-06T06:29:14.379Z,94330.11
2018-11-06T06:46:20.169Z,94314.20
2018-11-06T07:01:24.299Z,94313.61
2018-11-06T07:16:28.427Z,94318.14
2018-11-06T07:31:32.513Z,94308.72
2018-11-06T07:46:36.641Z,94321.42
2018-11-06T08:01:40.925Z,94312.25
2018-11-06T08:16:45.013Z,94294.96
2018-11-06T08:31:49.451Z,94296.06
2018-11-06T08:46:53.244Z,94308.16
2018-11-06T09:01:57.481Z,94301.56
2018-11-06T09:17:01.696Z,94280.66
2018-11-06T09:32:06.516Z,94277.34
2018-11-06T09:47:15.072Z,94262.52
2018-11-06T10:02:19.235Z,94241.81
2018-11-06T10:17:23.516Z,94227.69
2018-11-06T10:32:27.632Z,94206.10
2018-11-06T10:47:31.921Z,94191.61
2018-11-06T11:02:40.962Z,94177.80
2018-11-06T11:17:45.171Z,94158.61
2018-11-06T11:32:49.553Z,94142.75
2018-11-06T11:47:53.821Z,94154.52
2018-11-06T12:02:58.747Z,94122.19
2018-11-06T12:18:02.951Z,94118.22
2018-11-06T12:33:07.068Z,94099.52
2018-11-06T12:48:11.274Z,94102.63
2018-11-06T13:03:15.577Z,94104.98
2018-11-06T13:18:19.887Z,94103.53
2018-11-06T13:33:24.068Z,94100.32
2018-11-06T13:48:28.338Z,94111.27
2018-11-06T14:03:32.412Z,94115.00
2018-11-06T14:18:36.527Z,94114.66
2018-11-06T14:33:40.732Z,94112.93
2018-11-06T14:48:44.974Z,94135.82
2018-11-06T15:03:49.007Z,94118.64
2018-11-06T15:18:53.168Z,94131.64
2018-11-06T15:33:57.356Z,94141.25
2018-11-06T15:49:01.674Z,94152.26
2018-11-06T16:04:05.811Z,94164.92
2018-11-06T16:19:09.921Z,94164.27
2018-11-06T16:34:14.157Z,94183.64
2018-11-06T16:49:18.348Z,94181.16
2018-11-06T17:04:22.585Z,94188.44
2018-11-06T17:19:26.692Z,94220.88
2018-11-06T17:34:30.804Z,94207.06
2018-11-06T17:49:34.898Z,94215.11
2018-11-06T18:04:39.115Z,94222.34
2018-11-06T18:19:43.189Z,94219.39
2018-11-06T18:34:47.489Z,94226.36
2018-11-06T18:49:51.895Z,94216.39
2018-11-06T19:04:55.971Z,94216.18
2018-11-06T19:20:00.253Z,94228.66
2018-11-06T19:35:04.592Z,94227.83
2018-11-06T19:50:10.478Z,94241.71
2018-11-06T20:05:14.854Z,94241.55
2018-11-06T20:20:25.225Z,94239.13
2018-11-06T20:35:29.435Z,94243.41
2018-11-06T20:50:33.713Z,94248.62
2018-11-06T21:05:37.942Z,94247.50
2018-11-06T21:20:42.062Z,94248.08
2018-11-06T21:35:46.310Z,94243.80
2018-11-06T21:50:50.475Z,94246.92
2018-11-06T22:05:54.738Z,94246.41
2018-11-06T22:20:58.904Z,94248.16
2018-11-06T22:36:03.173Z,94245.70
2018-11-06T22:51:07.608Z,94242.12
2018-11-06T23:06:12.108Z,94236.78
2018-11-06T23:21:16.378Z,94232.70
2018-11-06T23:36:20.789Z,94233.50
2018-11-06T23:51:25.125Z,94241.55
